» Metar & Tafor

23 Maret 2020
METAR
Pukul : 10.00 UTC
Isi :

METAR WAGI 011000Z 00000KT 8000 BKN012 27/26 Q1007 NOSIG=


10 Juni 2019
TAFOR
Pukul : 06 - 18 UTC
Isi :

TAF WAGI 010500Z 0106/0118 26006KT 9000 FEW012CB BKN012 TEMPO 0107/0111 4000 -RA BECMG 0111/0113 BKN012=


Hal: << First | < Prev | 1 | Next > | Last >>